LFRB/BES METAR and TAF weather

Enter ICAO airport designator
Station Type Date Time Source
LFRB METAR 2020/07/10 19:30 UTC NOAA

LFRB 101930Z AUTO 36005KT 340V040 CAVOK 14/08 Q1024 NOSIG


Station Type Date Time Source
LFRB Decoded METAR 2020/07/10 19:30 UTC NOAA

Brest, France (LFRB) 48-27N 004-25W 103M
Jul 10, 2020 - 03:30 PM EDT / 2020.07.10 1930 UTC
Wind: from the N (360 degrees) at 6 MPH (5 KT) (direction variable):0
Visibility: greater than 7 mile(s):0
Temperature: 57 F (14 C)
Dew Point: 46 F (8 C)
Relative Humidity: 67%
Pressure (altimeter): 30.24 in. Hg (1024 hPa)
ob: LFRB 101930Z AUTO 36005KT 340V040 CAVOK 14/08 Q1024 NOSIG
cycle: 19

Station Type Date Time Source
LFRB TAF 2020/07/10 18:21 UTC NOAA

TAF LFRB 101700Z 1018/1124 35010KT 9999 FEW030 PROB30
TEMPO 1103/1106 4000 MIFG

Example: see airport list